Details From TDPD - Dominica/Melville Hall
To TQPF - Anguilla/Wallblake
Flight Number -
Tags generated
Created
Modified
Stats Distance 193 nm / 357 km
Max Altitude 24,200 ft / 7,376 m
Waypoints 4
Social Downloads 6
Likes 0
Share

Download

Looking for another format? Having issues loading an existing format? Contact us
Advertisement - Login to hide

Notes

Basic altitude profile: - Ascent Rate: 2500ft/min - Ascent Speed: 250kts - Cruise Altitude: 35000ft - Cruise Speed: 420kts - Descent Rate: 1500ft/min - Descent Speed: 250kts Options: - Use NATs: yes - Use PACOTS: yes - Use low airways: yes - Use high airways: yes

Route

TDPD BIMBO A517 SKB TQPF

ID Type Via Altitude (ft/m) Position (lat/lon) Dist (leg/tot) Name
O TDPD APT - 0 / 0 15.54680 / -61.30063 - / 0 nm Dominica/Melville Hall
BIMBO FIX - 24,200 / 7,376 16.62667 / -61.96028 75 / 75 nm
SKB NDB A517 (AWY-LO) 12,200 / 3,719 17.29597 / -62.74328 60 / 135 nm BRADSHAW NDB
O TQPF APT - 0 / 0 18.20480 / -63.05386 57 / 192 nm Anguilla/Wallblake

Altitude Profile

Advertisement - Login to hide

Weather


0- 5 10 15 20 25 30 35+ Temperature / °C

Clouds and Precipitation
Forecast for 2022-08-08 18:00 UTC. Updated 3 hours ago

Ground ~20,000 ft ~40,000 ft Winds

TDPD

Details ICAO TDPD (DOM)
Name Douglas-Charles
Region Dominica
Timezone America/Dominica (UTC-4.0)
Stats Elevation 73 ft / 22 m (AMSL)
Location 15.546600° -61.301400°
Runways 1
Magnetic Variation 15.070° W

METAR

TDPD 081800Z 10008KT 9999 SCT016 BKN034 28/25 Q1013

Decode

TAF

TAF TDPD 081700Z 0818/0918 10010KT 9999 SCT016

Decode

Departure Runways

ID Width Length Bearing (true/mag) Surface Threshold Overrun Markings Lighting
09 148 ft / 45 m 5,704 ft / 1,739 m 69.87° / 84.94° ASPHALT 1,109 ft / 338 m 0 ft / 0 m PREC-APP EDGE THRESHOLD
27 148 ft / 45 m 5,704 ft / 1,739 m 249.87° / 264.94° ASPHALT 0 ft / 0 m 0 ft / 0 m PREC-APP EDGE THRESHOLD SALS

TQPF

Details ICAO TQPF (AXA)
Name Clayton J Lloyd International Airport
Region UK (Anguilla)
Timezone America/Anguilla (UTC-4.0)
Stats Elevation 127 ft / 39 m (AMSL)
Location 18.204800° -63.053900°
Runways 1
Magnetic Variation 14.469° W

METAR

TQPF 081800Z 08017KT 9999 FEW020 30/22 Q1015 RMK NOSIG

Decode

TAF

TAF TQPF 081700Z 0818/0918 08014KT 9999 SCT022 PROB30 TEMPO 0818/0918 09015G25KT

Decode

Destination Runways

ID Width Length Bearing (true/mag) Surface Threshold Overrun Markings Lighting
10 98 ft / 30 m 5,467 ft / 1,666 m 90.65° / 105.11° ASPHALT 492 ft / 150 m 0 ft / 0 m PREC-APP EDGE THRESHOLD
28 98 ft / 30 m 5,467 ft / 1,666 m 270.65° / 285.12° ASPHALT 492 ft / 150 m 0 ft / 0 m PREC-APP EDGE THRESHOLD

Popular Alternatives